createdAt,value
2018-08-13T00:02:26.576Z,18.40
2018-08-13T00:04:55.018Z,18.40
2018-08-13T00:07:23.487Z,18.40
2018-08-13T00:09:51.974Z,18.40
2018-08-13T00:12:20.484Z,18.40
2018-08-13T00:14:49.065Z,18.40
2018-08-13T00:17:17.600Z,18.30
2018-08-13T00:19:46.988Z,18.30
2018-08-13T00:22:15.515Z,18.30
2018-08-13T00:24:43.967Z,18.30
2018-08-13T00:27:12.887Z,18.30
2018-08-13T00:29:41.397Z,18.40
2018-08-13T00:32:09.983Z,18.30
2018-08-13T00:34:38.536Z,18.20
2018-08-13T00:37:07.016Z,18.20
2018-08-13T00:39:35.470Z,18.20
2018-08-13T00:42:04.111Z,18.20
2018-08-13T00:44:32.749Z,18.10
2018-08-13T00:47:01.277Z,18.00
2018-08-13T00:49:30.192Z,18.00
2018-08-13T00:51:58.660Z,18.00
2018-08-13T00:54:27.105Z,17.80
2018-08-13T00:56:55.588Z,17.70
2018-08-13T00:59:24.050Z,17.80
2018-08-13T01:01:53.137Z,17.80
2018-08-13T01:04:21.575Z,17.80
2018-08-13T01:06:50.037Z,17.90
2018-08-13T01:09:18.476Z,17.90
2018-08-13T01:11:46.946Z,17.80
2018-08-13T01:14:15.861Z,17.80
2018-08-13T01:16:44.392Z,17.80
2018-08-13T01:19:12.862Z,17.70
2018-08-13T01:21:41.322Z,17.80
2018-08-13T01:24:09.767Z,17.80
2018-08-13T01:26:38.278Z,17.80
2018-08-13T01:29:06.983Z,17.80
2018-08-13T01:31:35.416Z,17.70
2018-08-13T01:34:03.972Z,17.80
2018-08-13T01:36:32.693Z,17.80
2018-08-13T01:39:01.216Z,17.80
2018-08-13T01:41:29.639Z,17.90
2018-08-13T01:43:58.113Z,17.80
2018-08-13T01:46:26.965Z,17.90
2018-08-13T01:48:55.408Z,17.90
2018-08-13T01:51:24.776Z,17.90
2018-08-13T01:53:53.271Z,17.90
2018-08-13T01:56:21.769Z,17.90
2018-08-13T01:58:50.251Z,17.90
2018-08-13T02:01:18.763Z,18.00
2018-08-13T02:03:47.208Z,17.90
2018-08-13T02:06:15.721Z,17.80
2018-08-13T02:08:44.172Z,17.70
2018-08-13T02:11:12.823Z,17.80
2018-08-13T02:13:41.821Z,17.70
2018-08-13T02:16:10.281Z,17.70
2018-08-13T02:18:38.703Z,17.80
2018-08-13T02:21:07.460Z,17.80
2018-08-13T02:23:36.033Z,17.70
2018-08-13T02:26:04.576Z,17.60
2018-08-13T02:28:33.060Z,17.60
2018-08-13T02:31:01.552Z,17.70
2018-08-13T02:33:30.021Z,17.90
2018-08-13T02:35:58.471Z,18.00
2018-08-13T02:38:27.221Z,17.80
2018-08-13T02:40:56.599Z,17.70
2018-08-13T02:43:25.094Z,17.70
2018-08-13T02:45:53.574Z,17.60
2018-08-13T02:48:22.051Z,17.60
2018-08-13T02:50:50.669Z,17.60
2018-08-13T02:53:19.139Z,17.70
2018-08-13T02:55:47.626Z,17.80
2018-08-13T02:58:16.212Z,17.80
2018-08-13T03:00:44.601Z,17.80
2018-08-13T03:03:13.175Z,18.20
2018-08-13T03:05:41.966Z,18.40
2018-08-13T03:08:10.448Z,18.50
2018-08-13T03:10:39.121Z,18.50
2018-08-13T03:13:07.619Z,18.50
2018-08-13T03:15:36.091Z,18.50
2018-08-13T03:18:04.616Z,18.50
2018-08-13T03:20:33.170Z,18.50
2018-08-13T03:23:01.700Z,18.30
2018-08-13T03:25:30.219Z,18.20
2018-08-13T03:27:59.220Z,18.10
2018-08-13T03:30:27.685Z,18.00
2018-08-13T03:32:56.252Z,18.00
2018-08-13T03:35:24.710Z,18.10
2018-08-13T03:37:53.352Z,18.10
2018-08-13T03:40:21.808Z,18.00
2018-08-13T03:42:50.341Z,18.00
2018-08-13T03:45:18.793Z,18.20
2018-08-13T03:47:47.282Z,18.20
2018-08-13T03:50:15.751Z,18.30
2018-08-13T03:52:44.249Z,18.30
2018-08-13T03:55:12.750Z,18.30
2018-08-13T03:57:42.184Z,18.20
2018-08-13T04:00:13.679Z,18.10
2018-08-13T04:02:42.524Z,18.20
2018-08-13T04:05:11.688Z,18.20
2018-08-13T04:07:40.451Z,18.10
2018-08-13T04:10:10.395Z,17.90
2018-08-13T04:12:40.811Z,17.80
2018-08-13T04:15:10.639Z,17.70
2018-08-13T04:17:39.092Z,17.60
2018-08-13T04:20:09.345Z,17.50
2018-08-13T04:22:37.883Z,17.40
2018-08-13T04:25:07.610Z,17.40
2018-08-13T04:27:36.424Z,17.40
2018-08-13T04:30:07.976Z,17.30
2018-08-13T04:32:36.536Z,17.20
2018-08-13T04:35:05.100Z,17.20
2018-08-13T04:37:34.732Z,17.20
2018-08-13T04:44:56.049Z,17.20
2018-08-13T04:47:24.837Z,17.30
2018-08-13T04:49:53.367Z,17.30
2018-08-13T04:52:21.901Z,17.30
2018-08-13T04:54:50.313Z,17.30
2018-08-13T04:57:19.848Z,17.40
2018-08-13T04:59:48.350Z,17.40
2018-08-13T05:02:16.777Z,17.40
2018-08-13T05:04:45.260Z,17.50
2018-08-13T05:07:13.821Z,17.40
2018-08-13T05:09:42.332Z,17.50
2018-08-13T05:12:13.133Z,17.50
2018-08-13T05:14:46.665Z,17.50
2018-08-13T05:17:20.609Z,17.50
2018-08-13T05:19:54.203Z,17.50
2018-08-13T05:22:27.422Z,17.50
2018-08-13T05:27:29.285Z,17.60
2018-08-13T05:29:57.933Z,17.50
2018-08-13T05:32:31.463Z,17.60
2018-08-13T05:35:04.751Z,17.50
2018-08-13T05:37:38.844Z,17.50
2018-08-13T05:40:12.360Z,17.30
2018-08-13T05:42:45.738Z,17.00
2018-08-13T05:45:18.893Z,16.90
2018-08-13T05:47:54.389Z,16.80
2018-08-13T05:50:28.133Z,16.80
2018-08-13T05:53:03.758Z,16.60
2018-08-13T05:55:36.969Z,16.50
2018-08-13T05:58:10.242Z,16.40
2018-08-13T06:00:44.032Z,16.30
2018-08-13T06:03:17.604Z,16.40
2018-08-13T06:05:47.399Z,16.40
2018-08-13T06:08:17.148Z,16.40
2018-08-13T06:10:47.404Z,16.40
2018-08-13T06:13:20.875Z,16.40
2018-08-13T06:15:54.307Z,16.40
2018-08-13T06:18:28.346Z,16.40
2018-08-13T06:21:02.001Z,16.50
2018-08-13T06:23:34.840Z,16.70
2018-08-13T06:28:43.029Z,16.60
2018-08-13T06:31:11.960Z,16.70
2018-08-13T06:33:41.051Z,16.80
2018-08-13T06:36:12.027Z,16.90
2018-08-13T06:38:45.518Z,17.00
2018-08-13T06:41:18.467Z,17.00
2018-08-13T06:43:49.114Z,17.00
2018-08-13T06:46:18.105Z,17.20
2018-08-13T06:48:47.343Z,17.20
2018-08-13T06:51:22.868Z,17.40
2018-08-13T06:53:54.631Z,17.40
2018-08-13T06:56:27.982Z,17.40
2018-08-13T06:59:00.431Z,17.60
2018-08-13T07:01:29.475Z,17.70
2018-08-13T07:03:58.109Z,17.70
2018-08-13T07:06:32.143Z,17.60
2018-08-13T07:09:06.740Z,17.50
2018-08-13T07:11:40.039Z,17.60
2018-08-13T07:14:13.244Z,17.60
2018-08-13T07:16:46.531Z,17.50
2018-08-13T07:19:19.863Z,17.50
2018-08-13T07:21:52.649Z,17.50
2018-08-13T07:24:24.550Z,17.50
2018-08-13T07:26:53.047Z,17.60
2018-08-13T07:29:22.600Z,17.70
2018-08-13T07:31:57.453Z,17.80
2018-08-13T07:34:30.299Z,17.90
2018-08-13T07:37:04.094Z,17.80
2018-08-13T07:39:37.273Z,18.00
2018-08-13T07:42:09.330Z,17.90
2018-08-13T07:44:37.762Z,18.10
2018-08-13T07:47:06.411Z,18.10
2018-08-13T07:49:38.938Z,18.10
2018-08-13T07:52:12.037Z,18.10
2018-08-13T07:54:45.232Z,18.20
2018-08-13T07:57:14.188Z,18.20
2018-08-13T07:59:42.940Z,18.40
2018-08-13T08:02:13.849Z,18.40
2018-08-13T08:04:47.431Z,18.50
2018-08-13T08:07:20.435Z,18.50
2018-08-13T08:09:51.765Z,18.50
2018-08-13T08:12:20.272Z,18.50
2018-08-13T08:14:49.624Z,18.40
2018-08-13T08:17:23.203Z,18.40
2018-08-13T08:19:55.877Z,18.40
2018-08-13T08:25:03.929Z,18.50
2018-08-13T08:30:13.436Z,18.70
2018-08-13T08:32:47.082Z,18.70
2018-08-13T08:35:23.687Z,18.80
2018-08-13T08:37:52.221Z,18.90
2018-08-13T08:40:21.791Z,18.80
2018-08-13T08:42:50.765Z,18.80
2018-08-13T08:45:21.726Z,18.70
2018-08-13T08:47:55.453Z,18.60
2018-08-13T08:52:57.251Z,18.60
2018-08-13T08:55:25.897Z,18.60
2018-08-13T08:57:59.013Z,18.70
2018-08-13T09:00:32.777Z,18.70
2018-08-13T09:03:05.338Z,19.30
2018-08-13T09:05:38.478Z,19.50
2018-08-13T09:08:13.489Z,19.50
2018-08-13T09:10:45.148Z,19.80
2018-08-13T09:13:14.473Z,19.50
2018-08-13T09:15:43.283Z,19.40
2018-08-13T09:18:25.165Z,19.30
2018-08-13T09:21:06.737Z,19.20
2018-08-13T09:23:48.952Z,19.20
2018-08-13T09:26:30.754Z,19.20
2018-08-13T09:29:18.327Z,19.00
2018-08-13T09:32:29.093Z,18.90
2018-08-13T09:36:11.964Z,18.80
2018-08-13T09:38:42.772Z,18.70
2018-08-13T09:41:16.815Z,18.70
2018-08-13T09:43:45.619Z,18.90
2018-08-13T09:46:15.353Z,19.00
2018-08-13T09:48:48.684Z,19.00
2018-08-13T09:51:21.864Z,19.00
2018-08-13T09:53:55.097Z,19.00
2018-08-13T09:56:23.550Z,19.10
2018-08-13T09:58:52.106Z,19.00
2018-08-13T10:01:24.812Z,19.00
2018-08-13T10:03:58.187Z,18.90
2018-08-13T10:06:30.713Z,18.90
2018-08-13T10:11:32.293Z,19.00
2018-08-13T10:14:00.973Z,18.90
2018-08-13T10:16:33.909Z,18.90
2018-08-13T10:19:07.182Z,18.70
2018-08-13T10:21:40.889Z,18.80
2018-08-13T10:24:14.766Z,18.90
2018-08-13T10:26:49.810Z,18.90
2018-08-13T10:29:25.048Z,19.00
2018-08-13T10:31:59.441Z,19.20
2018-08-13T10:34:32.307Z,19.00
2018-08-13T10:37:06.012Z,19.10
2018-08-13T10:39:39.612Z,19.10
2018-08-13T10:42:13.644Z,19.60
2018-08-13T10:44:47.236Z,19.90
2018-08-13T10:47:20.765Z,20.40
2018-08-13T10:54:59.698Z,20.00
2018-08-13T10:57:28.326Z,20.20
2018-08-13T10:59:58.176Z,20.50
2018-08-13T11:02:34.130Z,20.70
2018-08-13T11:05:07.663Z,21.00
2018-08-13T11:07:40.431Z,21.60
2018-08-13T11:10:15.348Z,22.40
2018-08-13T11:12:48.373Z,22.50
2018-08-13T11:15:21.573Z,21.90
2018-08-13T11:17:54.807Z,21.70
2018-08-13T11:20:27.779Z,21.80
2018-08-13T11:22:56.344Z,21.70
2018-08-13T11:25:24.895Z,22.10
2018-08-13T11:27:53.443Z,22.50
2018-08-13T11:30:21.980Z,22.70
2018-08-13T11:32:50.872Z,22.50
2018-08-13T11:35:19.786Z,22.10
2018-08-13T11:37:48.407Z,22.10
2018-08-13T11:40:18.656Z,22.20
2018-08-13T11:42:52.648Z,22.40
2018-08-13T11:45:26.882Z,22.90
2018-08-13T11:48:01.527Z,22.60
2018-08-13T11:50:33.554Z,22.70
2018-08-13T11:53:11.230Z,22.40
2018-08-13T11:55:42.305Z,21.80
2018-08-13T11:58:17.804Z,21.70
2018-08-13T12:00:50.852Z,21.80
2018-08-13T12:03:25.306Z,22.00
2018-08-13T12:05:59.333Z,22.00
2018-08-13T12:08:31.699Z,22.00
2018-08-13T12:11:05.735Z,22.00
2018-08-13T12:13:38.807Z,21.90
2018-08-13T12:18:40.534Z,22.00
2018-08-13T12:21:09.138Z,22.00
2018-08-13T12:23:41.869Z,22.00
2018-08-13T12:26:17.685Z,21.60
2018-08-13T12:28:52.045Z,21.00
2018-08-13T12:36:17.558Z,20.20
2018-08-13T12:38:50.769Z,20.20
2018-08-13T12:41:25.202Z,20.30
2018-08-13T12:44:00.341Z,20.60
2018-08-13T12:46:35.264Z,20.60
2018-08-13T12:49:07.580Z,20.60
2018-08-13T12:51:40.725Z,20.50
2018-08-13T12:54:14.624Z,20.30
2018-08-13T12:56:47.776Z,20.20
2018-08-13T12:59:22.601Z,20.00
2018-08-13T13:01:57.168Z,19.90
2018-08-13T13:04:30.622Z,20.00
2018-08-13T13:07:03.694Z,20.40
2018-08-13T13:09:32.207Z,20.80
2018-08-13T13:12:00.796Z,21.40
2018-08-13T13:14:33.395Z,21.60
2018-08-13T13:17:06.668Z,21.30
2018-08-13T13:19:42.184Z,21.30
2018-08-13T13:22:15.233Z,21.50
2018-08-13T13:24:48.725Z,21.60
2018-08-13T13:27:22.122Z,21.80
2018-08-13T13:29:55.778Z,22.00
2018-08-13T13:32:24.282Z,22.20
2018-08-13T13:34:52.892Z,22.70
2018-08-13T13:37:25.975Z,23.00
2018-08-13T13:39:58.894Z,23.10
2018-08-13T13:42:34.881Z,23.40
2018-08-13T13:45:06.703Z,23.50
2018-08-13T13:47:35.577Z,23.50
2018-08-13T13:50:04.287Z,23.40
2018-08-13T13:52:32.781Z,23.60
2018-08-13T13:55:01.297Z,23.60
2018-08-13T13:57:29.934Z,23.40
2018-08-13T14:00:00.330Z,23.30
2018-08-13T14:02:32.446Z,23.30
2018-08-13T14:05:00.897Z,23.40
2018-08-13T14:07:30.275Z,23.10
2018-08-13T14:10:04.662Z,22.90
2018-08-13T14:12:38.437Z,22.80
2018-08-13T14:15:11.506Z,22.80
2018-08-13T14:17:45.598Z,22.90
2018-08-13T14:20:19.660Z,23.10
2018-08-13T14:22:52.936Z,23.00
2018-08-13T14:25:27.869Z,22.90
2018-08-13T14:28:03.012Z,23.10
2018-08-13T14:30:35.652Z,23.20
2018-08-13T14:33:09.296Z,23.40
2018-08-13T14:35:42.459Z,23.50
2018-08-13T14:38:15.866Z,23.40
2018-08-13T14:40:48.874Z,23.50
2018-08-13T14:43:17.433Z,23.50
2018-08-13T14:45:46.024Z,23.30
2018-08-13T14:48:18.409Z,23.10
2018-08-13T14:50:53.704Z,23.00
2018-08-13T14:53:26.148Z,22.90
2018-08-13T14:55:59.633Z,23.00
2018-08-13T14:58:33.976Z,23.00
2018-08-13T15:01:08.660Z,22.90
2018-08-13T15:03:41.676Z,22.90
2018-08-13T15:06:15.095Z,22.80
2018-08-13T15:08:45.199Z,22.80
2018-08-13T15:11:14.061Z,22.80
2018-08-13T15:13:47.678Z,23.00
2018-08-13T15:16:18.838Z,23.50
2018-08-13T15:18:52.228Z,23.60
2018-08-13T15:21:25.773Z,23.60
2018-08-13T15:23:57.369Z,23.50
2018-08-13T15:26:26.103Z,23.30
2018-08-13T15:28:54.660Z,23.30
2018-08-13T15:31:25.936Z,23.30
2018-08-13T15:33:59.038Z,23.10
2018-08-13T15:36:29.787Z,22.90
2018-08-13T15:38:59.030Z,22.80
2018-08-13T15:41:28.028Z,22.80
2018-08-13T15:44:01.385Z,22.80
2018-08-13T15:46:32.720Z,22.90
2018-08-13T15:49:01.233Z,23.00
2018-08-13T15:51:29.793Z,23.00
2018-08-13T15:53:58.266Z,23.10
2018-08-13T15:56:26.754Z,22.90
2018-08-13T15:58:55.268Z,22.80
2018-08-13T16:01:23.793Z,22.70
2018-08-13T16:03:52.357Z,22.50
2018-08-13T16:06:20.888Z,22.30
2018-08-13T16:08:49.504Z,22.20
2018-08-13T16:11:18.056Z,22.10
2018-08-13T16:13:46.516Z,22.10
2018-08-13T16:16:15.243Z,22.20
2018-08-13T16:18:43.783Z,22.20
2018-08-13T16:21:18.725Z,22.30
2018-08-13T16:23:47.227Z,22.30
2018-08-13T16:26:15.713Z,22.40
2018-08-13T16:28:47.829Z,22.30
2018-08-13T16:31:16.361Z,22.30
2018-08-13T16:33:44.853Z,22.20
2018-08-13T16:36:13.726Z,22.20
2018-08-13T16:38:42.304Z,22.20
2018-08-13T16:41:10.822Z,22.10
2018-08-13T16:43:39.320Z,22.20
2018-08-13T16:46:07.844Z,22.30
2018-08-13T16:48:36.692Z,22.30
2018-08-13T16:51:05.160Z,22.30
2018-08-13T16:53:33.709Z,22.20
2018-08-13T16:56:02.273Z,22.10
2018-08-13T16:58:30.877Z,22.00
2018-08-13T17:00:59.380Z,21.90
2018-08-13T17:03:27.804Z,21.80
2018-08-13T17:05:56.647Z,21.70
2018-08-13T17:08:25.651Z,21.70
2018-08-13T17:10:54.453Z,21.60
2018-08-13T17:13:23.125Z,21.50
2018-08-13T17:15:52.421Z,21.50
2018-08-13T17:18:22.824Z,21.40
2018-08-13T17:20:51.512Z,21.50
2018-08-13T17:23:20.108Z,21.50
2018-08-13T17:25:48.660Z,21.50
2018-08-13T17:28:18.037Z,21.60
2018-08-13T17:30:46.674Z,21.70
2018-08-13T17:33:15.515Z,21.70
2018-08-13T17:35:46.899Z,21.70
2018-08-13T17:38:16.582Z,21.80
2018-08-13T17:40:46.144Z,21.70
2018-08-13T17:43:15.220Z,21.60
2018-08-13T17:45:45.741Z,21.50
2018-08-13T17:48:14.465Z,21.40
2018-08-13T17:50:43.040Z,21.30
2018-08-13T17:53:16.169Z,21.30
2018-08-13T17:55:44.942Z,21.10
2018-08-13T17:58:13.389Z,21.10
2018-08-13T18:00:42.478Z,21.00
2018-08-13T18:03:11.312Z,20.90
2018-08-13T18:05:40.061Z,20.80
2018-08-13T18:08:08.822Z,20.80
2018-08-13T18:10:37.376Z,20.80
2018-08-13T18:13:07.960Z,20.80
2018-08-13T18:15:43.261Z,20.70
2018-08-13T18:18:11.938Z,20.70
2018-08-13T18:20:40.475Z,20.70
2018-08-13T18:23:15.464Z,20.60
2018-08-13T18:25:44.190Z,20.70
2018-08-13T18:28:13.410Z,20.70
2018-08-13T18:30:41.975Z,20.80
2018-08-13T18:33:10.849Z,20.70
2018-08-13T18:35:39.396Z,20.60
2018-08-13T18:38:07.884Z,20.60
2018-08-13T18:40:36.416Z,20.50
2018-08-13T18:43:05.040Z,20.50
2018-08-13T18:45:33.647Z,20.40
2018-08-13T18:48:02.178Z,20.30
2018-08-13T18:50:30.829Z,20.30
2018-08-13T18:52:59.308Z,20.30
2018-08-13T18:55:27.899Z,20.20
2018-08-13T18:57:56.405Z,20.30
2018-08-13T19:00:28.550Z,20.20
2018-08-13T19:02:57.990Z,20.10
2018-08-13T19:05:34.900Z,20.20
2018-08-13T19:08:03.461Z,20.10
2018-08-13T19:10:32.227Z,20.10
2018-08-13T19:13:01.249Z,20.10
2018-08-13T19:15:30.720Z,20.00
2018-08-13T19:17:59.320Z,20.00
2018-08-13T19:20:27.843Z,19.80
2018-08-13T19:22:58.207Z,19.80
2018-08-13T19:25:27.912Z,19.70
2018-08-13T19:27:56.615Z,19.70
2018-08-13T19:30:25.796Z,19.70
2018-08-13T19:32:54.724Z,19.70
2018-08-13T19:35:23.349Z,19.60
2018-08-13T19:37:51.941Z,19.60
2018-08-13T19:40:22.307Z,19.60
2018-08-13T19:42:51.255Z,19.50
2018-08-13T19:45:20.582Z,19.50
2018-08-13T19:47:49.788Z,19.50
2018-08-13T19:50:18.293Z,19.50
2018-08-13T19:52:47.912Z,19.40
2018-08-13T19:55:16.990Z,19.40
2018-08-13T19:57:45.532Z,19.30
2018-08-13T20:00:18.951Z,19.30
2018-08-13T20:02:48.051Z,19.30
2018-08-13T20:05:17.307Z,19.20
2018-08-13T20:07:45.880Z,19.20
2018-08-13T20:10:15.398Z,19.10
2018-08-13T20:12:44.651Z,19.10
2018-08-13T20:15:13.340Z,19.00
2018-08-13T20:17:42.180Z,19.00
2018-08-13T20:20:14.988Z,19.00
2018-08-13T20:22:44.437Z,19.00
2018-08-13T20:25:14.277Z,18.90
2018-08-13T20:27:43.288Z,19.00
2018-08-13T20:30:15.129Z,18.80
2018-08-13T20:32:44.716Z,18.80
2018-08-13T20:35:13.216Z,18.70
2018-08-13T20:37:41.742Z,18.60
2018-08-13T20:40:12.888Z,18.70
2018-08-13T20:42:41.818Z,18.70
2018-08-13T20:45:13.184Z,18.60
2018-08-13T20:47:42.006Z,18.60
2018-08-13T20:50:19.957Z,18.60
2018-08-13T20:52:49.549Z,18.60
2018-08-13T20:55:19.605Z,18.50
2018-08-13T20:57:50.032Z,18.50
2018-08-13T21:00:21.165Z,18.40
2018-08-13T21:02:49.713Z,18.40
2018-08-13T21:05:18.336Z,18.40
2018-08-13T21:07:47.931Z,18.50
2018-08-13T21:10:19.826Z,18.40
2018-08-13T21:12:48.973Z,18.40
2018-08-13T21:15:17.747Z,18.40
2018-08-13T21:17:46.709Z,18.30
2018-08-13T21:20:27.155Z,18.30
2018-08-13T21:22:56.442Z,18.30
2018-08-13T21:25:25.331Z,18.20
2018-08-13T21:27:53.988Z,18.20
2018-08-13T21:30:22.463Z,18.30
2018-08-13T21:32:50.921Z,18.20
2018-08-13T21:35:21.731Z,18.10
2018-08-13T21:37:50.489Z,18.10
2018-08-13T21:40:19.149Z,18.10
2018-08-13T21:42:48.345Z,18.10
2018-08-13T21:45:16.845Z,18.10
2018-08-13T21:47:45.452Z,18.00
2018-08-13T21:50:17.453Z,18.00
2018-08-13T21:52:46.811Z,18.00
2018-08-13T21:55:15.283Z,18.00
2018-08-13T21:57:43.720Z,17.90
2018-08-13T22:00:29.480Z,17.90
2018-08-13T22:03:02.189Z,17.90
2018-08-13T22:05:30.748Z,17.90
2018-08-13T22:07:59.566Z,17.90
2018-08-13T22:10:28.259Z,17.80
2018-08-13T22:12:56.770Z,17.80
2018-08-13T22:15:29.172Z,17.70
2018-08-13T22:18:00.544Z,17.70
2018-08-13T22:20:30.017Z,17.70
2018-08-13T22:22:59.387Z,17.60
2018-08-13T22:25:32.560Z,17.60
2018-08-13T22:28:01.428Z,17.60
2018-08-13T22:30:31.644Z,17.60
2018-08-13T22:33:00.157Z,17.60
2018-08-13T22:35:28.679Z,17.50
2018-08-13T22:37:57.165Z,17.60
2018-08-13T22:40:25.837Z,17.50
2018-08-13T22:42:54.508Z,17.50
2018-08-13T22:45:23.849Z,17.50
2018-08-13T22:47:52.571Z,17.50
2018-08-13T22:50:21.043Z,17.40
2018-08-13T22:52:49.599Z,17.50
2018-08-13T22:55:18.769Z,17.60
2018-08-13T22:57:47.488Z,17.70
2018-08-13T23:00:19.960Z,17.60
2018-08-13T23:02:49.207Z,17.70
2018-08-13T23:08:08.063Z,17.60
2018-08-13T23:10:36.544Z,17.60
2018-08-13T23:13:10.632Z,17.50
2018-08-13T23:15:39.089Z,17.50
2018-08-13T23:18:07.654Z,17.40
2018-08-13T23:25:29.620Z,17.50
2018-08-13T23:27:59.319Z,17.60
2018-08-13T23:30:28.105Z,17.60
2018-08-13T23:32:57.411Z,17.70
2018-08-13T23:35:26.507Z,17.70
2018-08-13T23:37:55.463Z,17.90
2018-08-13T23:40:24.445Z,17.90
2018-08-13T23:42:53.033Z,18.00
2018-08-13T23:45:24.352Z,18.00
2018-08-13T23:47:52.885Z,18.00
2018-08-13T23:50:22.917Z,18.00
2018-08-13T23:52:52.780Z,18.00
2018-08-13T23:55:27.952Z,18.10
2018-08-13T23:57:56.814Z,18.10
